createdAt,value
2023-04-15T00:00:47.520Z,1017.00
2023-04-15T00:01:47.589Z,1026.00
2023-04-15T00:02:47.746Z,1008.00
2023-04-15T00:03:47.843Z,993.00
2023-04-15T00:04:47.617Z,995.00
2023-04-15T00:05:47.528Z,988.00
2023-04-15T00:06:47.537Z,990.00
2023-04-15T00:07:47.548Z,982.00
2023-04-15T00:08:47.604Z,987.00
2023-04-15T00:09:47.640Z,1005.00
2023-04-15T00:10:47.685Z,990.00
2023-04-15T00:11:47.700Z,1003.00
2023-04-15T00:12:47.742Z,988.00
2023-04-15T00:13:47.783Z,973.00
2023-04-15T00:14:47.804Z,994.00
2023-04-15T00:15:47.873Z,970.00
2023-04-15T00:16:48.015Z,995.00
2023-04-15T00:17:48.034Z,1015.00
2023-04-15T00:18:47.961Z,1000.00
2023-04-15T00:19:47.993Z,973.00
2023-04-15T00:20:48.047Z,969.00
2023-04-15T00:21:48.068Z,970.00
2023-04-15T00:22:48.128Z,993.00
2023-04-15T00:23:48.165Z,991.00
2023-04-15T00:24:48.202Z,977.00
2023-04-15T00:25:48.232Z,978.00
2023-04-15T00:26:48.263Z,971.00
2023-04-15T00:27:48.302Z,977.00
2023-04-15T00:28:48.380Z,958.00
2023-04-15T00:29:48.393Z,952.00
2023-04-15T00:30:48.475Z,950.00
2023-04-15T00:31:48.491Z,988.00
2023-04-15T00:32:48.574Z,989.00
2023-04-15T00:33:48.564Z,1006.00
2023-04-15T00:34:48.592Z,973.00
2023-04-15T00:35:48.694Z,944.00
2023-04-15T00:36:48.769Z,938.00
2023-04-15T00:37:48.828Z,961.00
2023-04-15T00:38:48.788Z,986.00
2023-04-15T00:39:48.816Z,996.00
2023-04-15T00:40:48.849Z,982.00
2023-04-15T00:41:48.877Z,956.00
2023-04-15T00:42:49.008Z,962.00
2023-04-15T00:43:49.184Z,978.00
2023-04-15T00:44:49.154Z,979.00
2023-04-15T00:45:49.208Z,980.00
2023-04-15T00:46:49.166Z,935.00
2023-04-15T00:47:49.225Z,985.00
2023-04-15T00:48:49.166Z,961.00
2023-04-15T00:49:49.205Z,987.00
2023-04-15T00:50:49.269Z,967.00
2023-04-15T00:51:49.314Z,964.00
2023-04-15T00:52:49.503Z,989.00
2023-04-15T00:53:49.493Z,974.00
2023-04-15T00:54:49.485Z,962.00
2023-04-15T00:55:49.562Z,985.00
2023-04-15T00:56:49.500Z,1004.00
2023-04-15T00:57:49.604Z,1021.00
2023-04-15T00:58:49.569Z,1028.00
2023-04-15T00:59:49.626Z,980.00
2023-04-15T01:00:49.650Z,1006.00
2023-04-15T01:01:49.810Z,977.00
2023-04-15T01:02:49.795Z,989.00
2023-04-15T01:03:49.935Z,1009.00
2023-04-15T01:04:49.805Z,991.00
2023-04-15T01:05:49.848Z,980.00
2023-04-15T01:06:49.908Z,986.00
2023-04-15T01:07:49.948Z,984.00
2023-04-15T01:08:49.988Z,1003.00
2023-04-15T01:09:50.034Z,1025.00
2023-04-15T01:10:50.061Z,1047.00
2023-04-15T01:11:50.115Z,1042.00
2023-04-15T01:12:50.144Z,1047.00
2023-04-15T01:13:50.187Z,1026.00
2023-04-15T01:14:50.218Z,1005.00
2023-04-15T01:15:50.270Z,1020.00
2023-04-15T01:16:50.319Z,1007.00
2023-04-15T01:17:50.364Z,1007.00
2023-04-15T01:18:50.396Z,978.00
2023-04-15T01:19:50.439Z,986.00
2023-04-15T01:20:50.473Z,1005.00
2023-04-15T01:21:50.524Z,996.00
2023-04-15T01:22:50.536Z,1012.00
2023-04-15T01:23:50.608Z,998.00
2023-04-15T01:24:50.648Z,995.00
2023-04-15T01:25:50.686Z,1010.00
2023-04-15T01:26:50.714Z,1023.00
2023-04-15T01:27:50.770Z,1017.00
2023-04-15T01:28:50.797Z,1028.00
2023-04-15T01:29:50.846Z,1007.00
2023-04-15T01:30:50.889Z,1033.00
2023-04-15T01:31:51.022Z,1005.00
2023-04-15T01:32:51.054Z,1024.00
2023-04-15T01:33:51.033Z,1000.00
2023-04-15T01:34:51.062Z,1019.00
2023-04-15T01:35:51.100Z,985.00
2023-04-15T01:36:51.186Z,1002.00
2023-04-15T01:37:51.199Z,1015.00
2023-04-15T01:38:51.249Z,1038.00
2023-04-15T01:39:51.290Z,1041.00
2023-04-15T01:40:51.324Z,1057.00
2023-04-15T01:41:51.379Z,1055.00
2023-04-15T01:42:51.422Z,1024.00
2023-04-15T01:43:51.470Z,1041.00
2023-04-15T01:44:51.529Z,1030.00
2023-04-15T01:45:51.562Z,1031.00
2023-04-15T01:46:51.725Z,1058.00
2023-04-15T01:47:51.651Z,1034.00
2023-04-15T01:48:51.711Z,1047.00
2023-04-15T01:49:51.777Z,1041.00
2023-04-15T01:50:51.780Z,1059.00
2023-04-15T01:51:51.814Z,1043.00
2023-04-15T01:52:51.886Z,1010.00
2023-04-15T01:53:51.967Z,1010.00
2023-04-15T01:54:51.957Z,1002.00
2023-04-15T01:55:52.024Z,1006.00
2023-04-15T01:56:52.067Z,1003.00
2023-04-15T01:57:52.118Z,1004.00
2023-04-15T01:58:52.168Z,1007.00
2023-04-15T01:59:52.172Z,1006.00
2023-04-15T02:02:11.435Z,500.00
2023-04-15T02:03:11.343Z,500.00
2023-04-15T02:04:11.373Z,500.00
2023-04-15T02:05:11.340Z,500.00
2023-04-15T02:06:11.353Z,500.00
2023-04-15T02:07:11.385Z,498.00
2023-04-15T02:08:11.392Z,502.00
2023-04-15T02:09:11.402Z,501.00
2023-04-15T02:10:11.423Z,500.00
2023-04-15T02:11:11.466Z,504.00
2023-04-15T02:12:11.449Z,513.00
2023-04-15T02:13:11.471Z,511.00
2023-04-15T02:14:11.511Z,502.00
2023-04-15T02:15:11.499Z,506.00
2023-04-15T02:16:11.533Z,506.00
2023-04-15T02:17:11.526Z,510.00
2023-04-15T02:18:11.557Z,511.00
2023-04-15T02:19:11.565Z,513.00
2023-04-15T02:20:11.595Z,511.00
2023-04-15T02:21:11.586Z,510.00
2023-04-15T02:22:11.608Z,515.00
2023-04-15T02:23:11.634Z,512.00
2023-04-15T02:24:11.626Z,509.00
2023-04-15T02:25:11.642Z,503.00
2023-04-15T02:26:11.651Z,508.00
2023-04-15T02:27:11.665Z,518.00
2023-04-15T02:28:11.744Z,509.00
2023-04-15T02:29:11.736Z,502.00
2023-04-15T02:30:11.697Z,501.00
2023-04-15T02:31:11.722Z,500.00
2023-04-15T02:32:11.798Z,509.00
2023-04-15T02:33:11.752Z,521.00
2023-04-15T02:34:11.780Z,514.00
2023-04-15T02:35:11.795Z,503.00
2023-04-15T02:36:11.806Z,500.00
2023-04-15T02:37:11.831Z,508.00
2023-04-15T02:38:11.847Z,521.00
2023-04-15T02:39:11.872Z,515.00
2023-04-15T02:40:11.881Z,514.00
2023-04-15T02:41:11.914Z,514.00
2023-04-15T02:42:11.921Z,510.00
2023-04-15T02:43:11.929Z,508.00
2023-04-15T02:44:11.943Z,516.00
2023-04-15T02:45:11.979Z,515.00
2023-04-15T02:46:11.996Z,518.00
2023-04-15T02:47:12.015Z,520.00
2023-04-15T02:48:12.012Z,518.00
2023-04-15T02:49:12.026Z,523.00
2023-04-15T02:50:12.048Z,519.00
2023-04-15T02:51:12.052Z,524.00
2023-04-15T02:52:12.066Z,515.00
2023-04-15T02:53:12.099Z,523.00
2023-04-15T02:54:12.100Z,527.00
2023-04-15T02:55:12.147Z,534.00
2023-04-15T02:56:12.133Z,539.00
2023-04-15T02:57:12.154Z,538.00
2023-04-15T02:58:12.223Z,537.00
2023-04-15T02:59:12.182Z,530.00
2023-04-15T03:00:12.272Z,527.00
2023-04-15T03:01:12.286Z,530.00
2023-04-15T03:02:12.360Z,533.00
2023-04-15T03:03:12.541Z,524.00
2023-04-15T03:04:12.388Z,512.00
2023-04-15T03:05:12.287Z,512.00
2023-04-15T03:06:12.300Z,517.00
2023-04-15T03:07:12.305Z,522.00
2023-04-15T03:08:12.319Z,518.00
2023-04-15T03:09:12.330Z,521.00
2023-04-15T03:10:12.353Z,525.00
2023-04-15T03:11:12.368Z,528.00
2023-04-15T03:12:12.374Z,527.00
2023-04-15T03:13:12.397Z,525.00
2023-04-15T03:14:12.410Z,530.00
2023-04-15T03:15:12.451Z,540.00
2023-04-15T03:16:12.527Z,544.00
2023-04-15T03:17:12.564Z,545.00
2023-04-15T03:18:12.598Z,545.00
2023-04-15T03:19:12.641Z,553.00
2023-04-15T03:20:12.713Z,550.00
2023-04-15T03:21:12.739Z,551.00
2023-04-15T03:22:12.776Z,554.00
2023-04-15T03:23:12.843Z,556.00
2023-04-15T03:24:12.885Z,557.00
2023-04-15T03:25:12.923Z,564.00
2023-04-15T03:26:12.977Z,561.00
2023-04-15T03:27:13.019Z,558.00
2023-04-15T03:28:13.062Z,561.00
2023-04-15T03:29:13.104Z,556.00
2023-04-15T03:30:13.181Z,571.00
2023-04-15T03:31:13.229Z,566.00
2023-04-15T03:32:13.259Z,566.00
2023-04-15T03:33:13.310Z,569.00
2023-04-15T03:34:13.365Z,555.00
2023-04-15T03:35:13.402Z,551.00
2023-04-15T03:36:13.446Z,557.00
2023-04-15T03:37:13.600Z,558.00
2023-04-15T03:38:13.543Z,560.00
2023-04-15T03:39:13.613Z,563.00
2023-04-15T03:40:13.635Z,565.00
2023-04-15T03:41:13.697Z,574.00
2023-04-15T03:42:13.730Z,572.00
2023-04-15T03:43:13.775Z,572.00
2023-04-15T03:44:13.837Z,569.00
2023-04-15T03:45:13.886Z,569.00
2023-04-15T03:46:13.969Z,573.00
2023-04-15T03:47:13.956Z,571.00
2023-04-15T03:48:17.773Z,562.00
2023-04-15T03:49:14.153Z,560.00
2023-04-15T03:50:14.025Z,560.00
2023-04-15T03:51:14.117Z,559.00
2023-04-15T03:52:14.064Z,557.00
2023-04-15T03:53:14.184Z,553.00
2023-04-15T03:54:14.148Z,560.00
2023-04-15T03:55:14.175Z,574.00
2023-04-15T03:56:14.198Z,568.00
2023-04-15T03:57:15.053Z,573.00
2023-04-15T03:58:14.176Z,575.00
2023-04-15T03:59:14.209Z,579.00
2023-04-15T04:00:14.597Z,579.00
2023-04-15T04:01:14.178Z,576.00
2023-04-15T04:02:14.288Z,579.00
2023-04-15T04:03:14.422Z,576.00
2023-04-15T04:04:14.278Z,578.00
2023-04-15T04:05:14.279Z,580.00
2023-04-15T04:06:14.306Z,582.00
2023-04-15T04:07:14.266Z,580.00
2023-04-15T04:08:14.304Z,576.00
2023-04-15T04:09:14.294Z,575.00
2023-04-15T04:10:14.434Z,575.00
2023-04-15T04:11:14.358Z,572.00
2023-04-15T04:12:14.318Z,579.00
2023-04-15T04:13:14.490Z,566.00
2023-04-15T04:14:14.400Z,572.00
2023-04-15T04:15:14.412Z,578.00
2023-04-15T04:16:14.481Z,582.00
2023-04-15T04:17:14.422Z,578.00
2023-04-15T04:18:14.483Z,575.00
2023-04-15T04:19:14.542Z,580.00
2023-04-15T04:20:14.575Z,586.00
2023-04-15T04:21:14.569Z,587.00
2023-04-15T04:22:14.576Z,587.00
2023-04-15T04:23:14.603Z,584.00
2023-04-15T04:24:14.653Z,576.00
2023-04-15T04:25:14.697Z,575.00
2023-04-15T04:26:14.727Z,581.00
2023-04-15T04:27:14.745Z,581.00
2023-04-15T04:28:14.769Z,573.00
2023-04-15T04:29:14.766Z,582.00
2023-04-15T04:30:14.765Z,581.00
2023-04-15T04:31:14.799Z,576.00
2023-04-15T04:32:14.861Z,579.00
2023-04-15T04:33:14.799Z,579.00
2023-04-15T04:34:14.811Z,574.00
2023-04-15T04:35:14.846Z,571.00
2023-04-15T04:36:14.845Z,569.00
2023-04-15T04:37:14.842Z,571.00
2023-04-15T04:38:14.856Z,571.00
2023-04-15T04:39:14.881Z,571.00
2023-04-15T04:40:14.873Z,563.00
2023-04-15T04:41:14.895Z,565.00
2023-04-15T04:42:14.892Z,559.00
2023-04-15T04:43:14.916Z,553.00
2023-04-15T04:44:14.923Z,562.00
2023-04-15T04:45:14.922Z,549.00
2023-04-15T04:46:14.969Z,555.00
2023-04-15T04:47:14.931Z,560.00
2023-04-15T04:48:15.002Z,571.00
2023-04-15T04:49:14.959Z,570.00
2023-04-15T04:50:14.964Z,572.00
2023-04-15T04:51:15.077Z,573.00
2023-04-15T04:52:14.997Z,573.00
2023-04-15T04:53:15.014Z,561.00
2023-04-15T04:54:15.022Z,569.00
2023-04-15T04:55:15.033Z,559.00
2023-04-15T04:56:15.071Z,568.00
2023-04-15T04:57:15.116Z,568.00
2023-04-15T04:58:15.152Z,570.00
2023-04-15T04:59:15.327Z,575.00
2023-04-15T05:00:15.266Z,573.00
2023-04-15T05:01:15.315Z,566.00
2023-04-15T05:02:15.411Z,564.00
2023-04-15T05:03:15.677Z,566.00
2023-04-15T05:04:15.666Z,555.00
2023-04-15T05:05:15.472Z,562.00
2023-04-15T05:06:15.499Z,556.00
2023-04-15T05:07:15.546Z,558.00
2023-04-15T05:08:15.608Z,554.00
2023-04-15T05:09:15.653Z,561.00
2023-04-15T05:10:15.793Z,558.00
2023-04-15T05:11:15.715Z,565.00
2023-04-15T05:12:15.777Z,565.00
2023-04-15T05:13:15.827Z,559.00
2023-04-15T05:14:15.879Z,556.00
2023-04-15T05:15:15.899Z,561.00
2023-04-15T05:16:16.065Z,564.00
2023-04-15T05:17:15.973Z,559.00
2023-04-15T05:18:16.031Z,556.00
2023-04-15T05:19:16.066Z,558.00
2023-04-15T05:20:16.105Z,558.00
2023-04-15T05:21:16.157Z,550.00
2023-04-15T05:22:16.211Z,552.00
2023-04-15T05:23:16.244Z,553.00
2023-04-15T05:24:16.279Z,558.00
2023-04-15T05:25:16.340Z,556.00
2023-04-15T05:26:16.362Z,551.00
2023-04-15T05:27:16.415Z,553.00
2023-04-15T05:28:16.463Z,556.00
2023-04-15T05:29:16.498Z,549.00
2023-04-15T05:30:16.535Z,548.00
2023-04-15T05:31:16.610Z,554.00
2023-04-15T05:32:16.605Z,542.00
2023-04-15T05:33:16.658Z,553.00
2023-04-15T05:34:16.695Z,551.00
2023-04-15T05:35:16.738Z,546.00
2023-04-15T05:36:16.784Z,544.00
2023-04-15T05:37:16.819Z,542.00
2023-04-15T05:38:16.880Z,535.00
2023-04-15T05:39:16.917Z,545.00
2023-04-15T05:40:16.961Z,534.00
2023-04-15T05:41:19.556Z,538.00
2023-04-15T05:42:16.999Z,542.00
2023-04-15T05:43:17.051Z,548.00
2023-04-15T05:44:17.038Z,548.00
2023-04-15T05:45:17.026Z,542.00
2023-04-15T05:46:17.054Z,541.00
2023-04-15T05:47:17.086Z,548.00
2023-04-15T05:48:17.068Z,556.00
2023-04-15T05:49:17.079Z,549.00
2023-04-15T05:50:17.083Z,541.00
2023-04-15T05:51:17.096Z,544.00
2023-04-15T05:52:17.123Z,533.00
2023-04-15T05:53:17.118Z,529.00
2023-04-15T05:54:18.682Z,527.00
2023-04-15T05:55:17.155Z,527.00
2023-04-15T05:56:17.159Z,523.00
2023-04-15T05:57:17.158Z,526.00
2023-04-15T05:58:17.209Z,531.00
2023-04-15T05:59:17.195Z,526.00
2023-04-15T06:00:17.196Z,519.00
2023-04-15T06:01:17.213Z,509.00
2023-04-15T06:02:17.295Z,509.00
2023-04-15T06:03:17.342Z,504.00
2023-04-15T06:04:17.340Z,505.00
2023-04-15T06:05:17.239Z,507.00
2023-04-15T06:06:17.260Z,509.00
2023-04-15T06:07:17.250Z,510.00
2023-04-15T06:08:17.284Z,510.00
2023-04-15T06:09:17.281Z,511.00
2023-04-15T06:10:17.326Z,510.00
2023-04-15T06:11:17.291Z,508.00
2023-04-15T06:12:17.301Z,516.00
2023-04-15T06:13:17.314Z,511.00
2023-04-15T06:14:17.335Z,516.00
2023-04-15T06:15:17.322Z,507.00
2023-04-15T06:16:17.384Z,512.00
2023-04-15T06:17:17.331Z,513.00
2023-04-15T06:18:17.354Z,519.00
2023-04-15T06:19:17.369Z,513.00
2023-04-15T06:20:17.369Z,503.00
2023-04-15T06:21:17.376Z,514.00
2023-04-15T06:22:17.374Z,518.00
2023-04-15T06:23:17.384Z,512.00
2023-04-15T06:24:17.409Z,520.00
2023-04-15T06:25:17.406Z,518.00
2023-04-15T06:26:17.432Z,506.00
2023-04-15T06:27:17.480Z,509.00
2023-04-15T06:28:17.514Z,504.00
2023-04-15T06:29:17.560Z,509.00
2023-04-15T06:30:17.591Z,509.00
2023-04-15T06:31:17.645Z,505.00
2023-04-15T06:32:17.660Z,511.00
2023-04-15T06:33:17.687Z,517.00
2023-04-15T06:34:17.740Z,519.00
2023-04-15T06:35:17.765Z,512.00
2023-04-15T06:36:17.796Z,505.00
2023-04-15T06:37:17.829Z,512.00
2023-04-15T06:38:17.865Z,502.00
2023-04-15T06:39:17.903Z,504.00
2023-04-15T06:40:17.944Z,505.00
2023-04-15T06:41:17.978Z,510.00
2023-04-15T06:42:18.022Z,502.00
2023-04-15T06:43:18.054Z,512.00
2023-04-15T06:44:18.099Z,508.00
2023-04-15T06:45:18.140Z,507.00
2023-04-15T06:46:18.215Z,500.00
2023-04-15T06:47:18.215Z,508.00
2023-04-15T06:48:18.251Z,520.00
2023-04-15T06:49:18.278Z,522.00
2023-04-15T06:50:18.387Z,515.00
2023-04-15T06:51:18.330Z,510.00
2023-04-15T06:52:18.374Z,513.00
2023-04-15T06:53:18.401Z,514.00
2023-04-15T06:54:18.445Z,501.00
2023-04-15T06:55:18.543Z,510.00
2023-04-15T06:56:18.512Z,500.00
2023-04-15T06:57:18.545Z,506.00
2023-04-15T06:58:18.584Z,512.00
2023-04-15T06:59:18.616Z,505.00
2023-04-15T07:00:18.664Z,503.00
2023-04-15T07:01:18.722Z,507.00
2023-04-15T07:02:18.808Z,507.00
2023-04-15T07:03:18.797Z,500.00
2023-04-15T07:04:18.809Z,514.00
2023-04-15T07:05:18.834Z,513.00
2023-04-15T07:06:18.851Z,508.00
2023-04-15T07:07:18.886Z,506.00
2023-04-15T07:08:18.915Z,500.00
2023-04-15T07:09:18.980Z,521.00
2023-04-15T07:10:18.979Z,516.00
2023-04-15T07:11:19.025Z,500.00
2023-04-15T07:12:19.059Z,506.00
2023-04-15T07:13:19.089Z,505.00
2023-04-15T07:14:19.121Z,513.00
2023-04-15T07:15:19.211Z,501.00
2023-04-15T07:16:19.236Z,500.00
2023-04-15T07:17:19.259Z,500.00
2023-04-15T07:18:19.229Z,503.00
2023-04-15T07:19:19.263Z,523.00
2023-04-15T07:20:19.304Z,501.00
2023-04-15T07:21:19.332Z,526.00
2023-04-15T07:22:19.398Z,540.00
2023-04-15T07:23:19.420Z,538.00
2023-04-15T07:24:19.478Z,524.00
2023-04-15T07:25:19.463Z,526.00
2023-04-15T07:26:19.536Z,537.00
2023-04-15T07:27:19.550Z,521.00
2023-04-15T07:28:19.562Z,535.00
2023-04-15T07:29:19.585Z,545.00
2023-04-15T07:30:19.629Z,548.00
2023-04-15T07:31:19.699Z,552.00
2023-04-15T07:32:19.751Z,561.00
2023-04-15T07:33:19.701Z,539.00
2023-04-15T07:34:19.735Z,535.00
2023-04-15T07:35:19.761Z,507.00
2023-04-15T07:36:19.806Z,525.00
2023-04-15T07:37:19.848Z,536.00
2023-04-15T07:38:19.890Z,545.00
2023-04-15T07:39:19.876Z,551.00
2023-04-15T07:40:19.919Z,562.00
2023-04-15T07:41:19.953Z,562.00
2023-04-15T07:42:19.982Z,556.00
2023-04-15T07:43:19.983Z,562.00
2023-04-15T07:44:20.002Z,566.00
2023-04-15T07:45:20.033Z,562.00
2023-04-15T07:46:20.105Z,560.00
2023-04-15T07:47:20.117Z,562.00
2023-04-15T07:48:20.140Z,567.00
2023-04-15T07:49:20.104Z,553.00
2023-04-15T07:50:20.130Z,534.00
2023-04-15T07:51:20.141Z,516.00
2023-04-15T07:52:20.188Z,519.00
2023-04-15T07:53:20.206Z,504.00
2023-04-15T07:54:20.204Z,500.00
2023-04-15T07:55:20.234Z,501.00
2023-04-15T07:56:20.252Z,500.00
2023-04-15T07:57:20.304Z,500.00
2023-04-15T07:58:20.329Z,505.00
2023-04-15T07:59:20.340Z,508.00
2023-04-15T08:00:20.374Z,510.00
2023-04-15T08:01:20.389Z,505.00
2023-04-15T08:02:20.471Z,508.00
2023-04-15T08:03:20.488Z,521.00
2023-04-15T08:04:20.608Z,526.00
2023-04-15T08:05:20.498Z,531.00
2023-04-15T08:06:20.473Z,539.00
2023-04-15T08:07:20.493Z,535.00
2023-04-15T08:08:20.512Z,530.00
2023-04-15T08:09:20.558Z,521.00
2023-04-15T08:10:20.550Z,532.00
2023-04-15T08:11:20.552Z,530.00
2023-04-15T08:12:20.585Z,524.00
2023-04-15T08:13:20.589Z,507.00
2023-04-15T08:14:20.599Z,516.00
2023-04-15T08:15:20.609Z,514.00
2023-04-15T08:16:20.693Z,503.00
2023-04-15T08:17:20.734Z,508.00
2023-04-15T08:18:20.707Z,511.00
2023-04-15T08:19:20.718Z,506.00
2023-04-15T08:20:20.785Z,519.00
2023-04-15T08:21:20.742Z,516.00
2023-04-15T08:22:21.976Z,512.00
2023-04-15T08:23:20.796Z,500.00
2023-04-15T08:24:20.809Z,511.00
2023-04-15T08:25:20.831Z,513.00
2023-04-15T08:26:20.881Z,509.00
2023-04-15T08:27:20.875Z,506.00
2023-04-15T08:28:20.872Z,525.00
2023-04-15T08:29:20.885Z,528.00
2023-04-15T08:30:20.912Z,520.00
2023-04-15T08:31:20.922Z,509.00
2023-04-15T08:32:20.960Z,504.00
2023-04-15T08:33:20.943Z,504.00
2023-04-15T08:34:20.961Z,513.00
2023-04-15T08:35:20.967Z,500.00
2023-04-15T08:36:21.046Z,500.00
2023-04-15T08:37:21.040Z,513.00
2023-04-15T08:38:21.067Z,515.00
2023-04-15T08:39:21.069Z,513.00
2023-04-15T08:40:21.084Z,515.00
2023-04-15T08:41:21.104Z,520.00
2023-04-15T08:42:21.149Z,503.00
2023-04-15T08:43:21.185Z,500.00
2023-04-15T08:44:21.239Z,507.00
2023-04-15T08:45:21.221Z,500.00
2023-04-15T08:46:21.276Z,504.00
2023-04-15T08:47:21.358Z,513.00
2023-04-15T08:48:21.355Z,504.00
2023-04-15T08:49:21.427Z,503.00
2023-04-15T08:50:21.441Z,502.00
2023-04-15T08:51:22.217Z,506.00
2023-04-15T08:52:21.503Z,481.00
2023-04-15T08:53:21.512Z,476.00
2023-04-15T08:54:21.499Z,457.00
2023-04-15T08:55:21.534Z,457.00
2023-04-15T08:56:21.561Z,464.00
2023-04-15T08:57:21.513Z,500.00
2023-04-15T08:58:21.605Z,505.00
2023-04-15T08:59:21.523Z,512.00
2023-04-15T09:00:21.541Z,501.00
2023-04-15T09:01:21.580Z,506.00
2023-04-15T09:03:40.362Z,500.00
2023-04-15T09:04:40.257Z,500.00
2023-04-15T09:05:40.266Z,500.00
2023-04-15T09:06:40.254Z,500.00
2023-04-15T09:07:40.273Z,500.00
2023-04-15T09:08:40.270Z,519.00
2023-04-15T09:09:40.290Z,522.00
2023-04-15T09:10:40.266Z,525.00
2023-04-15T09:11:40.267Z,521.00
2023-04-15T09:12:40.271Z,533.00
2023-04-15T09:13:40.287Z,527.00
2023-04-15T09:14:40.280Z,510.00
2023-04-15T09:15:40.275Z,510.00
2023-04-15T09:16:40.311Z,506.00
2023-04-15T09:17:40.341Z,487.00
2023-04-15T09:18:40.321Z,486.00
2023-04-15T09:19:40.288Z,483.00
2023-04-15T09:20:40.290Z,502.00
2023-04-15T09:21:40.283Z,514.00
2023-04-15T09:22:40.279Z,514.00
2023-04-15T09:23:40.295Z,527.00
2023-04-15T09:24:40.360Z,554.00
2023-04-15T09:25:40.421Z,540.00
2023-04-15T09:26:40.552Z,528.00
2023-04-15T09:27:40.553Z,541.00
2023-04-15T09:28:40.639Z,563.00
2023-04-15T09:29:40.689Z,557.00
2023-04-15T09:30:40.797Z,567.00
2023-04-15T09:31:40.776Z,567.00
2023-04-15T09:32:40.858Z,577.00
2023-04-15T09:33:40.911Z,585.00
2023-04-15T09:34:40.977Z,589.00
2023-04-15T09:35:41.018Z,592.00
2023-04-15T09:36:41.086Z,592.00
2023-04-15T09:37:41.123Z,596.00
2023-04-15T09:38:41.190Z,584.00
2023-04-15T09:39:41.227Z,591.00
2023-04-15T09:40:41.279Z,592.00
2023-04-15T09:41:41.333Z,595.00
2023-04-15T09:42:41.412Z,590.00
2023-04-15T09:43:41.455Z,588.00
2023-04-15T09:44:41.494Z,590.00
2023-04-15T09:45:41.554Z,566.00
2023-04-15T09:46:41.579Z,573.00
2023-04-15T09:47:41.696Z,548.00
2023-04-15T09:48:41.682Z,544.00
2023-04-15T09:49:41.760Z,548.00
2023-04-15T09:50:41.772Z,536.00
2023-04-15T09:51:43.383Z,532.00
2023-04-15T09:52:42.823Z,532.00
2023-04-15T09:53:41.799Z,533.00
2023-04-15T09:54:41.797Z,535.00
2023-04-15T09:55:41.804Z,538.00
2023-04-15T09:56:41.797Z,533.00
2023-04-15T09:57:41.791Z,535.00
2023-04-15T09:58:41.792Z,521.00
2023-04-15T09:59:41.778Z,517.00
2023-04-15T10:00:41.785Z,518.00
2023-04-15T10:01:41.837Z,505.00
2023-04-15T10:02:41.901Z,513.00
2023-04-15T10:03:41.895Z,500.00
2023-04-15T10:04:41.899Z,506.00
2023-04-15T10:05:41.912Z,501.00
2023-04-15T10:06:41.954Z,500.00
2023-04-15T10:07:41.954Z,500.00
2023-04-15T10:08:41.962Z,500.00
2023-04-15T10:09:41.978Z,506.00
2023-04-15T10:10:41.919Z,507.00
2023-04-15T10:11:41.918Z,509.00
2023-04-15T10:12:41.937Z,507.00
2023-04-15T10:13:41.915Z,515.00
2023-04-15T10:14:41.886Z,516.00
2023-04-15T10:15:41.897Z,505.00
2023-04-15T10:16:41.877Z,516.00
2023-04-15T10:17:41.913Z,513.00
2023-04-15T10:18:41.858Z,524.00
2023-04-15T10:19:41.912Z,529.00
2023-04-15T10:20:41.918Z,519.00
2023-04-15T10:21:41.946Z,522.00
2023-04-15T10:22:41.976Z,518.00
2023-04-15T10:23:41.999Z,516.00
2023-04-15T10:24:42.056Z,500.00
2023-04-15T10:25:42.074Z,512.00
2023-04-15T10:26:42.094Z,522.00
2023-04-15T10:27:42.172Z,517.00
2023-04-15T10:28:42.148Z,498.00
2023-04-15T10:29:42.199Z,509.00
2023-04-15T10:30:42.210Z,519.00
2023-04-15T10:31:42.278Z,507.00
2023-04-15T10:32:42.274Z,503.00
2023-04-15T10:33:42.310Z,521.00
2023-04-15T10:34:42.343Z,520.00
2023-04-15T10:35:42.395Z,530.00
2023-04-15T10:36:42.418Z,521.00
2023-04-15T10:37:42.422Z,515.00
2023-04-15T10:38:42.460Z,521.00
2023-04-15T10:39:42.518Z,513.00
2023-04-15T10:40:42.530Z,517.00
2023-04-15T10:41:42.567Z,514.00
2023-04-15T10:42:42.600Z,505.00
2023-04-15T10:43:42.613Z,496.00
2023-04-15T10:44:42.639Z,510.00
2023-04-15T10:45:42.677Z,517.00
2023-04-15T10:46:42.771Z,531.00
2023-04-15T10:47:42.755Z,546.00
2023-04-15T10:48:42.746Z,537.00
2023-04-15T10:49:42.781Z,546.00
2023-04-15T10:50:42.801Z,550.00
2023-04-15T10:51:42.837Z,537.00
2023-04-15T10:52:42.872Z,536.00
2023-04-15T10:53:42.896Z,532.00
2023-04-15T10:54:42.934Z,530.00
2023-04-15T10:55:42.927Z,534.00
2023-04-15T10:56:42.963Z,527.00
2023-04-15T10:57:42.999Z,524.00
2023-04-15T10:58:43.004Z,509.00
2023-04-15T10:59:43.498Z,508.00
2023-04-15T11:00:43.061Z,517.00
2023-04-15T11:01:43.142Z,519.00
2023-04-15T11:02:43.295Z,525.00
2023-04-15T11:03:43.297Z,535.00
2023-04-15T11:04:43.271Z,527.00
2023-04-15T11:05:43.226Z,535.00
2023-04-15T11:06:43.215Z,527.00
2023-04-15T11:07:43.267Z,524.00
2023-04-15T11:08:43.287Z,521.00
2023-04-15T11:09:43.323Z,532.00
2023-04-15T11:10:43.341Z,533.00
2023-04-15T11:11:44.895Z,527.00
2023-04-15T11:12:43.396Z,538.00
2023-04-15T11:13:43.441Z,537.00
2023-04-15T11:14:43.496Z,528.00
2023-04-15T11:15:43.503Z,527.00
2023-04-15T11:16:43.579Z,533.00
2023-04-15T11:17:45.936Z,540.00
2023-04-15T11:18:43.548Z,535.00
2023-04-15T11:19:43.536Z,516.00
2023-04-15T11:20:43.531Z,500.00
2023-04-15T11:21:43.518Z,525.00
2023-04-15T11:22:43.498Z,528.00
2023-04-15T11:23:43.484Z,537.00
2023-04-15T11:24:43.486Z,532.00
2023-04-15T11:25:43.861Z,511.00
2023-04-15T11:26:43.460Z,531.00
2023-04-15T11:27:43.428Z,539.00
2023-04-15T11:28:43.424Z,545.00
2023-04-15T11:29:43.428Z,530.00
2023-04-15T11:30:43.407Z,522.00
2023-04-15T11:31:43.431Z,507.00
2023-04-15T11:32:43.394Z,501.00
2023-04-15T11:33:43.364Z,504.00
2023-04-15T11:34:43.373Z,512.00
2023-04-15T11:35:43.369Z,513.00
2023-04-15T11:36:43.344Z,523.00
2023-04-15T11:37:43.340Z,526.00
2023-04-15T11:38:43.338Z,527.00
2023-04-15T11:39:43.339Z,520.00
2023-04-15T11:40:46.175Z,522.00
2023-04-15T11:41:43.312Z,521.00
2023-04-15T11:42:49.606Z,522.00
2023-04-15T11:43:44.315Z,520.00
2023-04-15T11:44:43.733Z,501.00
2023-04-15T11:45:43.335Z,490.00
2023-04-15T11:46:45.524Z,485.00
2023-04-15T11:47:43.312Z,485.00
2023-04-15T11:48:43.282Z,507.00
2023-04-15T11:49:43.330Z,511.00
2023-04-15T11:50:43.366Z,508.00
2023-04-15T11:51:43.440Z,521.00
2023-04-15T11:52:43.463Z,520.00
2023-04-15T11:53:43.513Z,516.00
2023-04-15T11:54:43.543Z,522.00
2023-04-15T11:55:43.605Z,522.00
2023-04-15T11:56:43.628Z,514.00
2023-04-15T11:57:43.691Z,533.00
2023-04-15T11:58:43.753Z,525.00
2023-04-15T11:59:45.709Z,537.00
2023-04-15T12:00:43.822Z,529.00
2023-04-15T12:01:43.901Z,521.00
2023-04-15T12:02:43.965Z,522.00
2023-04-15T12:03:44.168Z,499.00
2023-04-15T12:04:44.162Z,522.00
2023-04-15T12:05:44.037Z,523.00
2023-04-15T12:06:44.100Z,527.00
2023-04-15T12:07:44.104Z,538.00
2023-04-15T12:08:44.138Z,540.00
2023-04-15T12:09:44.195Z,536.00
2023-04-15T12:10:44.212Z,535.00
2023-04-15T12:11:44.273Z,536.00
2023-04-15T12:12:44.300Z,530.00
2023-04-15T12:13:44.334Z,527.00
2023-04-15T12:14:44.954Z,526.00
2023-04-15T12:15:44.433Z,521.00
2023-04-15T12:16:48.838Z,513.00
2023-04-15T12:17:51.726Z,513.00
2023-04-15T12:18:45.490Z,514.00
2023-04-15T12:19:44.429Z,515.00
2023-04-15T12:20:44.480Z,522.00
2023-04-15T12:21:44.401Z,528.00
2023-04-15T12:22:44.401Z,535.00
2023-04-15T12:23:44.418Z,536.00
2023-04-15T12:24:44.956Z,532.00
2023-04-15T12:25:44.507Z,538.00
2023-04-15T12:26:44.404Z,547.00
2023-04-15T12:27:44.407Z,533.00
2023-04-15T12:28:44.440Z,538.00
2023-04-15T12:29:44.451Z,541.00